Albany, Wisconsin
Current Conditions -  °F | °C
As of 11:15 PM on Monday 20 Oct 2014 (Local Time) from KEFT Reporting Station
Overcast Overcast  
Wind Chill: 42°   Ceiling: 4400
Heat Index: 46°   Visibility: 10mi
Dew Point: 43°   Wind: 8mph
Humidity: 87%   Direction: 10°N
Pressure: 30.03"   Gusts: NA
Location:  42.71°N, 89.44°W
Report Text: KEFT 210415Z AUTO 01007KT 10SM OVC044 08/06 A3003 RMK AO2
Loading
Personal Weather Stations






























Interactive Weather Map
Tropical Storm Tracking
New forecast layout! Learn more

10-Day Weather Forecast

Advertisements
Track Severe Weather on mobile